createdAt,value
2022-11-30T00:00:01.530Z,101703.88
2022-11-30T00:02:29.946Z,101709.53
2022-11-30T00:04:56.354Z,101716.91
2022-11-30T00:07:22.799Z,101712.84
2022-11-30T00:09:49.227Z,101715.31
2022-11-30T00:12:15.826Z,101717.97
2022-11-30T00:14:42.190Z,101721.75
2022-11-30T00:17:08.621Z,101717.97
2022-11-30T00:19:35.023Z,101722.81
2022-11-30T00:22:01.395Z,101718.59
2022-11-30T00:24:27.777Z,101727.78
2022-11-30T00:26:54.166Z,101726.47
2022-11-30T00:29:20.529Z,101724.00
2022-11-30T00:31:46.999Z,101727.00
2022-11-30T00:34:13.417Z,101735.41
2022-11-30T00:36:39.805Z,101724.81
2022-11-30T00:39:06.357Z,101728.06
2022-11-30T00:41:32.754Z,101740.78
2022-11-30T00:43:59.144Z,101732.13
2022-11-30T00:46:25.679Z,101729.47
2022-11-30T00:48:52.149Z,101731.06
2022-11-30T00:51:19.249Z,101727.34
2022-11-30T00:53:47.591Z,101730.03
2022-11-30T00:56:14.455Z,101728.38
2022-11-30T00:58:41.240Z,101729.19
2022-11-30T01:01:08.466Z,101729.50
2022-11-30T01:03:34.904Z,101724.94
2022-11-30T01:06:03.544Z,101727.59
2022-11-30T01:08:30.228Z,101725.97
2022-11-30T01:10:57.714Z,101719.94
2022-11-30T01:13:24.441Z,101727.84
2022-11-30T01:15:50.872Z,101718.69
2022-11-30T01:18:17.319Z,101720.81
2022-11-30T01:20:43.802Z,101728.44
2022-11-30T01:23:11.083Z,101729.50
2022-11-30T01:25:37.545Z,101722.34
2022-11-30T01:28:04.067Z,101721.34
2022-11-30T01:30:30.571Z,101722.84
2022-11-30T01:33:02.047Z,101725.50
2022-11-30T01:35:28.415Z,101723.13
2022-11-30T01:37:54.799Z,101729.69
2022-11-30T01:40:21.246Z,101719.31
2022-11-30T01:42:47.908Z,101726.47
2022-11-30T01:45:14.780Z,101732.94
2022-11-30T01:47:46.790Z,101731.03
2022-11-30T01:50:22.946Z,101728.59
2022-11-30T01:52:53.818Z,101726.41
2022-11-30T01:55:25.199Z,101732.94
2022-11-30T01:57:57.088Z,101721.97
2022-11-30T02:00:24.092Z,101726.13
2022-11-30T02:03:06.993Z,101728.03
2022-11-30T02:05:35.930Z,101731.31
2022-11-30T02:08:02.484Z,101734.31
2022-11-30T02:10:32.500Z,101718.81
2022-11-30T02:13:17.564Z,101723.28
2022-11-30T02:16:01.798Z,101723.47
2022-11-30T02:18:37.720Z,101722.94
2022-11-30T02:21:46.024Z,101722.78
2022-11-30T02:24:27.837Z,101722.69
2022-11-30T02:27:10.093Z,101721.66
2022-11-30T02:30:03.042Z,101724.38
2022-11-30T02:32:36.001Z,101726.03
2022-11-30T02:35:04.778Z,101714.06
2022-11-30T02:37:33.246Z,101715.56
2022-11-30T02:39:59.637Z,101720.22
2022-11-30T02:42:26.085Z,101722.50
2022-11-30T02:44:53.624Z,101717.41
2022-11-30T02:47:45.344Z,101716.94
2022-11-30T02:50:17.309Z,101736.34
2022-11-30T02:52:44.652Z,101724.19
2022-11-30T02:55:15.127Z,101723.88
2022-11-30T02:57:41.603Z,101724.75
2022-11-30T03:00:10.761Z,101723.06
2022-11-30T03:02:38.741Z,101728.25
2022-11-30T03:05:05.847Z,101730.13
2022-11-30T03:07:32.628Z,101727.72
2022-11-30T03:09:59.937Z,101728.84
2022-11-30T03:12:26.573Z,101718.50
2022-11-30T03:14:53.200Z,101723.88
2022-11-30T03:17:19.588Z,101723.88
2022-11-30T03:19:45.963Z,101725.50
2022-11-30T03:22:12.378Z,101724.22
2022-11-30T03:24:38.757Z,101729.06
2022-11-30T03:27:05.184Z,101726.84
2022-11-30T03:29:31.597Z,101735.00
2022-11-30T03:31:58.044Z,101727.09
2022-11-30T03:34:26.475Z,101728.50
2022-11-30T03:36:53.356Z,101736.31
2022-11-30T03:39:19.776Z,101743.13
2022-11-30T03:41:46.168Z,101735.78
2022-11-30T03:44:12.547Z,101740.38
2022-11-30T03:46:39.067Z,101743.44
2022-11-30T03:49:05.802Z,101744.47
2022-11-30T03:51:32.207Z,101735.00
2022-11-30T03:53:58.853Z,101740.09
2022-11-30T03:56:25.490Z,101749.31
2022-11-30T03:58:52.007Z,101746.56
2022-11-30T04:01:24.297Z,101747.47
2022-11-30T04:03:52.207Z,101745.28
2022-11-30T04:06:20.410Z,101744.69
2022-11-30T04:08:47.453Z,101740.38
2022-11-30T04:11:14.645Z,101754.78
2022-11-30T04:13:41.543Z,101754.75
2022-11-30T04:16:09.141Z,101750.22
2022-11-30T04:18:37.123Z,101750.72
2022-11-30T04:21:04.331Z,101745.56
2022-11-30T04:23:33.257Z,101743.66
2022-11-30T04:26:00.018Z,101754.16
2022-11-30T04:28:26.414Z,101758.19
2022-11-30T04:30:54.133Z,101757.50
2022-11-30T04:33:20.559Z,101758.31
2022-11-30T04:35:50.037Z,101764.03
2022-11-30T04:38:16.952Z,101771.59
2022-11-30T04:40:43.745Z,101772.72
2022-11-30T04:43:11.217Z,101773.25
2022-11-30T04:45:37.815Z,101776.25
2022-11-30T04:48:05.483Z,101777.81
2022-11-30T04:50:31.950Z,101778.13
2022-11-30T04:52:58.491Z,101775.41
2022-11-30T04:55:25.436Z,101777.53
2022-11-30T04:57:52.040Z,101783.03
2022-11-30T05:00:19.576Z,101777.34
2022-11-30T05:02:52.177Z,101777.31
2022-11-30T05:05:19.627Z,101778.19
2022-11-30T05:07:55.848Z,101776.56
2022-11-30T05:10:22.612Z,101782.00
2022-11-30T05:12:50.132Z,101780.09
2022-11-30T05:15:16.969Z,101782.50
2022-11-30T05:17:43.398Z,101789.28
2022-11-30T05:20:10.127Z,101785.53
2022-11-30T05:22:36.535Z,101789.53
2022-11-30T05:25:03.419Z,101792.78
2022-11-30T05:27:29.881Z,101788.50
2022-11-30T05:29:56.309Z,101794.47
2022-11-30T05:32:22.743Z,101798.22
2022-11-30T05:34:51.770Z,101807.22
2022-11-30T05:37:19.371Z,101805.28
2022-11-30T05:39:45.772Z,101813.97
2022-11-30T05:42:12.142Z,101816.72
2022-11-30T05:44:38.604Z,101819.06
2022-11-30T05:47:05.261Z,101819.09
2022-11-30T05:49:31.697Z,101816.00
2022-11-30T05:51:58.055Z,101816.88
2022-11-30T05:54:24.477Z,101813.38
2022-11-30T05:56:54.665Z,101822.03
2022-11-30T05:59:22.237Z,101824.00
2022-11-30T06:01:48.851Z,101825.00
2022-11-30T06:04:15.348Z,101833.16
2022-11-30T06:06:41.709Z,101825.84
2022-11-30T06:09:08.262Z,101831.28
2022-11-30T06:11:34.637Z,101834.25
2022-11-30T06:14:01.030Z,101835.38
2022-11-30T06:16:27.487Z,101841.09
2022-11-30T06:18:53.963Z,101841.38
2022-11-30T06:21:24.449Z,101841.38
2022-11-30T06:23:51.884Z,101847.06
2022-11-30T06:26:18.324Z,101850.88
2022-11-30T06:28:48.095Z,101844.88
2022-11-30T06:31:14.791Z,101844.88
2022-11-30T06:33:41.369Z,101850.59
2022-11-30T06:36:08.293Z,101847.88
2022-11-30T06:38:34.727Z,101854.66
2022-11-30T06:41:09.825Z,101853.28
2022-11-30T06:43:37.847Z,101860.88
2022-11-30T06:46:05.967Z,101862.22
2022-11-30T06:48:33.237Z,101860.59
2022-11-30T06:51:00.488Z,101858.47
2022-11-30T06:53:27.407Z,101867.84
2022-11-30T06:55:53.932Z,101866.56
2022-11-30T06:58:20.382Z,101869.56
2022-11-30T07:01:33.050Z,101876.38
2022-11-30T07:03:59.490Z,101870.13
2022-11-30T07:06:25.980Z,101879.38
2022-11-30T07:08:52.346Z,101877.44
2022-11-30T07:11:18.774Z,101876.41
2022-11-30T07:13:45.684Z,101879.38
2022-11-30T07:16:13.684Z,101884.25
2022-11-30T07:18:40.213Z,101888.31
2022-11-30T07:21:07.136Z,101888.28
2022-11-30T07:23:56.360Z,101894.81
2022-11-30T07:26:24.411Z,101902.44
2022-11-30T07:28:54.614Z,101892.09
2022-11-30T07:31:23.826Z,101907.56
2022-11-30T07:33:50.704Z,101908.09
2022-11-30T07:36:18.734Z,101900.75
2022-11-30T07:38:45.789Z,101903.69
2022-11-30T07:41:12.550Z,101906.72
2022-11-30T07:43:39.533Z,101900.81
2022-11-30T07:46:06.504Z,101906.19
2022-11-30T07:48:33.920Z,101906.66
2022-11-30T07:51:10.101Z,101913.53
2022-11-30T07:53:36.688Z,101912.66
2022-11-30T07:56:08.621Z,101925.16
2022-11-30T07:58:35.219Z,101918.38
2022-11-30T08:01:10.594Z,101915.91
2022-11-30T08:03:37.593Z,101920.81
2022-11-30T08:06:06.828Z,101915.69
2022-11-30T08:08:35.813Z,101916.50
2022-11-30T08:11:03.744Z,101915.38
2022-11-30T08:13:30.604Z,101925.44
2022-11-30T08:16:02.244Z,101922.03
2022-11-30T08:18:28.706Z,101921.94
2022-11-30T08:21:00.120Z,101928.97
2022-11-30T08:23:38.000Z,101931.69
2022-11-30T08:26:11.218Z,101931.13
2022-11-30T08:28:37.744Z,101935.34
2022-11-30T08:31:07.515Z,101936.53
2022-11-30T08:33:35.371Z,101930.53
2022-11-30T08:36:12.329Z,101940.34
2022-11-30T08:38:39.958Z,101942.50
2022-11-30T08:41:07.984Z,101941.13
2022-11-30T08:43:34.671Z,101947.06
2022-11-30T08:46:27.379Z,101954.13
2022-11-30T08:49:12.576Z,101955.47
2022-11-30T08:52:08.801Z,101966.38
2022-11-30T08:54:27.386Z,101964.94
2022-11-30T08:56:53.812Z,101970.41
2022-11-30T08:59:20.259Z,101978.28
2022-11-30T09:01:46.720Z,101980.19
2022-11-30T09:04:13.112Z,101980.69
2022-11-30T09:06:39.492Z,101986.66
2022-11-30T09:09:06.403Z,101986.94
2022-11-30T09:11:33.730Z,101985.28
2022-11-30T09:14:02.107Z,101986.59
2022-11-30T09:16:28.721Z,101982.56
2022-11-30T09:18:55.158Z,101976.88
2022-11-30T09:21:24.128Z,101978.78
2022-11-30T09:23:51.563Z,101978.53
2022-11-30T09:26:20.612Z,101982.03
2022-11-30T09:28:47.705Z,101984.75
2022-11-30T09:31:16.466Z,101982.78
2022-11-30T09:33:43.379Z,101983.56
2022-11-30T09:36:11.937Z,101985.59
2022-11-30T09:38:39.009Z,101986.47
2022-11-30T09:41:33.460Z,101987.94
2022-11-30T09:44:18.680Z,101986.78
2022-11-30T09:46:57.504Z,101981.31
2022-11-30T09:49:37.167Z,101986.47
2022-11-30T09:52:09.063Z,101986.72
2022-11-30T09:54:41.139Z,101984.00
2022-11-30T09:57:29.070Z,101984.28
2022-11-30T09:59:56.997Z,101980.00
2022-11-30T10:02:34.749Z,101983.97
2022-11-30T10:05:01.736Z,101984.53
2022-11-30T10:07:58.954Z,101973.38
2022-11-30T10:10:56.197Z,101978.53
2022-11-30T10:13:44.721Z,101977.72
2022-11-30T10:16:35.382Z,101979.34
2022-11-30T10:19:20.174Z,101981.50
2022-11-30T10:22:04.538Z,101975.75
2022-11-30T10:24:36.964Z,101968.16
2022-11-30T10:27:18.730Z,101978.75
2022-11-30T10:29:45.087Z,101974.66
2022-11-30T10:32:29.167Z,101970.59
2022-11-30T10:35:21.395Z,101962.44
2022-11-30T10:37:51.449Z,101963.50
2022-11-30T10:40:34.328Z,101960.50
2022-11-30T10:43:32.886Z,101961.00
2022-11-30T10:45:59.686Z,101963.19
2022-11-30T10:48:34.152Z,101964.81
2022-11-30T10:51:02.789Z,101964.59
2022-11-30T10:53:29.323Z,101964.53
2022-11-30T10:56:01.564Z,101970.84
2022-11-30T10:58:33.000Z,101962.41
2022-11-30T11:01:05.969Z,101963.44
2022-11-30T11:03:33.306Z,101963.47
2022-11-30T11:06:11.126Z,101961.53
2022-11-30T11:08:37.530Z,101960.13
2022-11-30T11:11:05.009Z,101967.50
2022-11-30T11:13:41.025Z,101972.34
2022-11-30T11:16:13.298Z,101967.78
2022-11-30T11:18:56.208Z,101980.75
2022-11-30T11:21:23.949Z,101970.69
2022-11-30T11:23:53.752Z,101975.06
2022-11-30T11:26:22.775Z,101974.78
2022-11-30T11:28:51.721Z,101979.41
2022-11-30T11:31:44.303Z,101971.50
2022-11-30T11:34:49.405Z,101973.09
2022-11-30T11:37:21.024Z,101972.31
2022-11-30T11:40:02.416Z,101980.81
2022-11-30T11:42:36.975Z,101979.94
2022-11-30T11:45:04.611Z,101986.41
2022-11-30T11:47:40.612Z,101985.22
2022-11-30T11:50:57.746Z,101989.38
2022-11-30T11:53:47.411Z,101980.69
2022-11-30T11:56:24.258Z,101999.19
2022-11-30T11:58:57.642Z,101995.06
2022-11-30T12:01:42.722Z,101994.28
2022-11-30T12:04:17.174Z,101996.44
2022-11-30T12:06:45.273Z,101997.53
2022-11-30T12:09:16.045Z,102002.09
2022-11-30T12:11:45.523Z,101998.03
2022-11-30T12:14:18.122Z,102005.66
2022-11-30T12:16:56.839Z,102001.78
2022-11-30T12:19:41.372Z,102003.16
2022-11-30T12:22:19.818Z,102005.97
2022-11-30T12:25:19.876Z,102000.50
2022-11-30T12:28:20.419Z,102004.81
2022-11-30T12:31:13.129Z,102012.97
2022-11-30T12:34:00.518Z,102018.66
2022-11-30T12:36:45.330Z,102014.63
2022-11-30T12:39:30.486Z,102012.19
2022-11-30T12:42:05.416Z,102017.84
2022-11-30T12:44:45.857Z,102020.69
2022-11-30T12:47:36.795Z,102017.63
2022-11-30T12:50:15.507Z,102017.91
2022-11-30T12:53:13.975Z,102019.72
2022-11-30T12:55:46.061Z,102025.66
2022-11-30T12:58:40.791Z,102024.63
2022-11-30T13:01:49.885Z,102010.31
2022-11-30T13:04:18.954Z,102016.69
2022-11-30T13:07:16.172Z,102018.38
2022-11-30T13:09:50.265Z,102012.91
2022-11-30T13:12:24.726Z,102020.72
2022-11-30T13:14:58.508Z,102017.47
2022-11-30T13:17:26.789Z,102015.03
2022-11-30T13:19:59.172Z,102018.56
2022-11-30T13:22:50.631Z,102023.47
2022-11-30T13:26:06.828Z,102014.28
2022-11-30T13:28:30.832Z,102022.22
2022-11-30T13:31:18.962Z,102021.09
2022-11-30T13:33:55.248Z,102026.53
2022-11-30T13:36:44.506Z,102020.03
2022-11-30T13:39:13.801Z,102029.59
2022-11-30T13:41:47.501Z,102028.22
2022-11-30T13:44:31.945Z,102026.59
2022-11-30T13:47:00.505Z,102025.50
2022-11-30T13:49:35.647Z,102027.69
2022-11-30T13:54:51.387Z,102018.41
2022-11-30T13:57:38.232Z,102021.72
2022-11-30T14:00:32.545Z,102014.41
2022-11-30T14:03:20.799Z,102025.84
2022-11-30T14:05:58.609Z,102014.66
2022-11-30T14:08:25.894Z,102030.44
2022-11-30T14:11:15.649Z,102022.63
2022-11-30T14:13:42.516Z,102023.44
2022-11-30T14:16:27.287Z,102018.03
2022-11-30T14:18:55.549Z,102028.34
2022-11-30T14:21:31.116Z,102023.91
2022-11-30T14:24:14.017Z,102030.25
2022-11-30T14:26:44.224Z,102036.50
2022-11-30T14:29:32.821Z,102037.59
2022-11-30T14:32:13.620Z,102036.53
2022-11-30T14:34:51.399Z,102029.44
2022-11-30T14:37:26.079Z,102030.03
2022-11-30T14:39:56.589Z,102030.56
2022-11-30T14:42:29.277Z,102029.59
2022-11-30T14:44:56.428Z,102031.56
2022-11-30T14:47:26.396Z,102030.81
2022-11-30T14:49:56.309Z,102033.28
2022-11-30T14:52:44.115Z,102032.44
2022-11-30T14:55:26.120Z,102040.03
2022-11-30T14:58:07.074Z,102035.16
2022-11-30T15:00:38.729Z,102038.38
2022-11-30T15:03:16.145Z,102047.66
2022-11-30T15:05:43.473Z,102047.97
2022-11-30T15:08:15.060Z,102045.25
2022-11-30T15:10:41.884Z,102050.41
2022-11-30T15:13:14.310Z,102046.63
2022-11-30T15:15:50.753Z,102056.34
2022-11-30T15:18:19.111Z,102057.50
2022-11-30T15:21:02.141Z,102057.78
2022-11-30T15:23:28.939Z,102058.28
2022-11-30T15:26:04.308Z,102061.28
2022-11-30T15:28:39.543Z,102059.69
2022-11-30T15:31:12.628Z,102072.72
2022-11-30T15:33:45.335Z,102064.84
2022-11-30T15:36:27.914Z,102060.81
2022-11-30T15:39:02.389Z,102067.88
2022-11-30T15:41:28.849Z,102063.25
2022-11-30T15:43:57.259Z,102066.78
2022-11-30T15:46:33.234Z,102061.63
2022-11-30T15:49:18.796Z,102071.69
2022-11-30T15:51:47.514Z,102067.09
2022-11-30T15:54:15.240Z,102070.31
2022-11-30T15:56:41.672Z,102066.84
2022-11-30T15:59:14.055Z,102068.53
2022-11-30T16:02:14.426Z,102070.69
2022-11-30T16:04:56.235Z,102065.00
2022-11-30T16:07:30.008Z,102072.88
2022-11-30T16:10:13.705Z,102076.16
2022-11-30T16:12:42.835Z,102072.34
2022-11-30T16:15:30.861Z,102078.63
2022-11-30T16:18:00.480Z,102076.44
2022-11-30T16:20:26.899Z,102080.78
2022-11-30T16:22:53.332Z,102085.16
2022-11-30T16:25:22.462Z,102086.00
2022-11-30T16:27:49.340Z,102087.63
2022-11-30T16:30:18.988Z,102091.44
2022-11-30T16:32:45.533Z,102091.97
2022-11-30T16:35:20.963Z,102083.03
2022-11-30T16:37:47.785Z,102080.59
2022-11-30T16:40:14.689Z,102085.75
2022-11-30T16:42:41.382Z,102092.28
2022-11-30T16:45:15.856Z,102108.28
2022-11-30T16:47:43.537Z,102110.50
2022-11-30T16:50:11.676Z,102112.41
2022-11-30T16:52:39.012Z,102103.47
2022-11-30T16:55:15.875Z,102109.41
2022-11-30T16:57:42.428Z,102106.69
2022-11-30T17:00:10.880Z,102113.22
2022-11-30T17:02:42.858Z,102129.50
2022-11-30T17:05:13.864Z,102118.38
2022-11-30T17:07:40.673Z,102126.78
2022-11-30T17:10:08.259Z,102138.69
2022-11-30T17:12:37.462Z,102132.72
2022-11-30T17:15:04.611Z,102133.84
2022-11-30T17:17:31.053Z,102140.06
2022-11-30T17:19:57.535Z,102144.94
2022-11-30T17:22:23.962Z,102151.16
2022-11-30T17:24:50.553Z,102150.09
2022-11-30T17:27:17.069Z,102149.81
2022-11-30T17:29:43.526Z,102147.63
2022-11-30T17:32:10.005Z,102147.34
2022-11-30T17:34:36.519Z,102153.03
2022-11-30T17:37:02.923Z,102153.03
2022-11-30T17:39:29.699Z,102160.09
2022-11-30T17:41:56.430Z,102156.00
2022-11-30T17:44:22.837Z,102164.97
2022-11-30T17:46:49.363Z,102154.94
2022-11-30T17:49:15.915Z,102153.56
2022-11-30T17:51:42.492Z,102157.66
2022-11-30T17:54:08.955Z,102148.97
2022-11-30T17:56:35.849Z,102153.31
2022-11-30T17:59:02.400Z,102166.59
2022-11-30T18:01:29.298Z,102160.63
2022-11-30T18:03:56.566Z,102151.69
2022-11-30T18:06:23.031Z,102158.97
2022-11-30T18:08:49.575Z,102158.16
2022-11-30T18:11:20.359Z,102160.34
2022-11-30T18:13:51.588Z,102159.50
2022-11-30T18:16:21.143Z,102161.16
2022-11-30T18:18:48.817Z,102154.91
2022-11-30T18:21:18.034Z,102160.59
2022-11-30T18:23:45.011Z,102166.56
2022-11-30T18:26:14.237Z,102161.97
2022-11-30T18:28:40.817Z,102163.56
2022-11-30T18:31:07.554Z,102166.78
2022-11-30T18:33:34.930Z,102170.56
2022-11-30T18:36:02.888Z,102174.63
2022-11-30T18:38:34.169Z,102171.13
2022-11-30T18:41:02.259Z,102168.16
2022-11-30T18:43:30.720Z,102177.06
2022-11-30T18:46:09.280Z,102177.34
2022-11-30T18:48:37.067Z,102186.28
2022-11-30T18:51:16.817Z,102191.44
2022-11-30T18:53:43.593Z,102190.34
2022-11-30T18:56:13.173Z,102184.59
2022-11-30T18:58:40.840Z,102193.28
2022-11-30T19:01:13.262Z,102196.00
2022-11-30T19:03:39.937Z,102199.53
2022-11-30T19:06:08.018Z,102196.00
2022-11-30T19:08:35.212Z,102196.00
2022-11-30T19:11:06.147Z,102203.31
2022-11-30T19:13:33.254Z,102201.69
2022-11-30T19:16:08.604Z,102206.09
2022-11-30T19:18:36.036Z,102209.59
2022-11-30T19:21:10.902Z,102200.63
2022-11-30T19:23:37.896Z,102200.66
2022-11-30T19:26:05.892Z,102208.22
2022-11-30T19:28:33.549Z,102214.44
2022-11-30T19:31:00.816Z,102211.44
2022-11-30T19:33:27.685Z,102212.78
2022-11-30T19:36:00.025Z,102219.28
2022-11-30T19:38:26.525Z,102229.06
2022-11-30T19:40:53.113Z,102225.00
2022-11-30T19:43:19.623Z,102228.50
2022-11-30T19:45:46.121Z,102233.91
2022-11-30T19:48:12.652Z,102226.56
2022-11-30T19:50:39.147Z,102227.09
2022-11-30T19:53:05.727Z,102223.59
2022-11-30T19:55:32.854Z,102228.47
2022-11-30T19:57:59.497Z,102230.63
2022-11-30T20:00:25.971Z,102229.81
2022-11-30T20:02:52.543Z,102230.41
2022-11-30T20:05:19.085Z,102230.13
2022-11-30T20:07:45.676Z,102235.84
2022-11-30T20:10:13.400Z,102234.19
2022-11-30T20:12:41.301Z,102233.91
2022-11-30T20:15:08.327Z,102243.94
2022-11-30T20:17:34.979Z,102245.56
2022-11-30T20:20:01.577Z,102241.78
2022-11-30T20:22:28.037Z,102243.41
2022-11-30T20:24:54.498Z,102241.25
2022-11-30T20:27:22.509Z,102242.88
2022-11-30T20:29:50.240Z,102239.06
2022-11-30T20:32:17.092Z,102238.56
2022-11-30T20:34:44.730Z,102239.34
2022-11-30T20:37:12.258Z,102242.09
2022-11-30T20:39:44.078Z,102242.13
2022-11-30T20:42:12.238Z,102243.47
2022-11-30T20:44:38.787Z,102237.81
2022-11-30T20:47:05.358Z,102239.66
2022-11-30T20:49:31.983Z,102244.00
2022-11-30T20:51:58.577Z,102248.06
2022-11-30T20:54:25.131Z,102249.69
2022-11-30T20:56:51.724Z,102247.78
2022-11-30T20:59:26.327Z,102244.00
2022-11-30T21:01:55.290Z,102253.75
2022-11-30T21:04:23.555Z,102253.22
2022-11-30T21:06:50.039Z,102247.00
2022-11-30T21:09:18.420Z,102252.41
2022-11-30T21:11:45.509Z,102252.41
2022-11-30T21:14:12.534Z,102257.28
2022-11-30T21:16:39.628Z,102261.06
2022-11-30T21:19:06.188Z,102255.66
2022-11-30T21:21:35.057Z,102260.81
2022-11-30T21:24:07.680Z,102257.53
2022-11-30T21:26:40.701Z,102255.06
2022-11-30T21:29:11.804Z,102252.91
2022-11-30T21:31:38.574Z,102255.88
2022-11-30T21:34:05.124Z,102262.69
2022-11-30T21:36:32.188Z,102256.72
2022-11-30T21:39:05.880Z,102258.34
2022-11-30T21:41:35.122Z,102255.91
2022-11-30T21:44:02.232Z,102253.19
2022-11-30T21:46:28.854Z,102259.97
2022-11-30T21:48:55.409Z,102257.00
2022-11-30T21:51:24.548Z,102255.91
2022-11-30T21:53:53.637Z,102257.00
2022-11-30T21:56:26.774Z,102257.78
2022-11-30T21:58:53.533Z,102264.84
2022-11-30T22:01:25.788Z,102263.78
2022-11-30T22:03:54.372Z,102261.34
2022-11-30T22:06:21.620Z,102261.88
2022-11-30T22:08:48.490Z,102262.97
2022-11-30T22:11:17.593Z,102254.03
2022-11-30T22:13:45.063Z,102262.44
2022-11-30T22:16:14.292Z,102256.19
2022-11-30T22:18:42.540Z,102264.03
2022-11-30T22:21:13.728Z,102251.31
2022-11-30T22:23:45.965Z,102260.78
2022-11-30T22:26:24.151Z,102259.44
2022-11-30T22:28:54.039Z,102256.72
2022-11-30T22:31:22.756Z,102252.38
2022-11-30T22:33:49.693Z,102256.22
2022-11-30T22:36:22.223Z,102255.38
2022-11-30T22:38:54.592Z,102257.81
2022-11-30T22:41:21.657Z,102257.22
2022-11-30T22:43:48.578Z,102253.16
2022-11-30T22:46:17.939Z,102255.06
2022-11-30T22:48:45.327Z,102255.09
2022-11-30T22:51:17.328Z,102257.25
2022-11-30T22:53:43.793Z,102257.53
2022-11-30T22:56:13.666Z,102252.38
2022-11-30T22:58:41.751Z,102250.47
2022-11-30T23:01:13.414Z,102258.91
2022-11-30T23:03:41.287Z,102250.50
2022-11-30T23:06:08.999Z,102244.56
2022-11-30T23:08:35.973Z,102248.59
2022-11-30T23:11:05.716Z,102248.63
2022-11-30T23:13:32.338Z,102245.38
2022-11-30T23:15:59.908Z,102249.16
2022-11-30T23:18:31.265Z,102249.69
2022-11-30T23:21:05.262Z,102255.09
2022-11-30T23:23:31.798Z,102243.44
2022-11-30T23:26:09.754Z,102258.06
2022-11-30T23:28:36.329Z,102252.38
2022-11-30T23:31:03.929Z,102254.56
2022-11-30T23:33:30.394Z,102249.16
2022-11-30T23:35:56.957Z,102253.19
2022-11-30T23:38:23.469Z,102244.00
2022-11-30T23:40:49.860Z,102241.78
2022-11-30T23:43:16.325Z,102249.66
2022-11-30T23:45:42.773Z,102246.13
2022-11-30T23:48:10.229Z,102243.97
2022-11-30T23:50:37.135Z,102245.84
2022-11-30T23:53:03.529Z,102243.16
2022-11-30T23:55:29.986Z,102238.25
2022-11-30T23:57:56.373Z,102242.13
